LIRNEGCN

Guest
Details From LIRN - Naples Capodichino
To EGCN - Doncaster-sheffield (ex Raf Finningley
Flight Number -
Tags Generated
Created
Modified
Stats Distance 977 nm / 1,809 km
Max Altitude 0 ft / 0 m
Waypoints 6
Social Downloads 1
Likes 0
Share VATSIM

Download

Looking for another format? Having issues loading an existing format? Contact us
Advertisement - Login to hide

Notes

Generated

Route

LIRN PRT13 BINGI IDOKO LAMIX EGCN

ID Type Via Altitude Latitude Longitude Leg Dist Tot Dist Heading (true) Name
O LIRN APT - 0 ft / 0 m 40.87979˚ 14.27754˚ - 0 nm - -
PRT13 FIX - 0 ft / 0 m 43.91653˚ 11.46652˚ 220 nm 220 nm 327° / 325° -
BINGI FIX - 0 ft / 0 m 47.24806˚ 7.83500˚ 251 nm 472 nm 324° / 321° -
IDOKO FIX - 0 ft / 0 m 50.34056˚ 3.87306˚ 242 nm 715 nm 321° / 318° -
LAMIX FIX - 0 ft / 0 m 53.30806˚ -0.68222˚ 245 nm 961 nm 318° / 315° -
O EGCN APT - 0 ft / 0 m 53.48772˚ -0.99749˚ 15 nm 976 nm 314° / 314° -

Altitude Profile

Advertisement - Login to hide

Weather


0- 5 10 15 20 25 30 35+ Temperature / ° C

Clouds and Precipitation
Forecast for 2017-12-12 12:00 UTC. Updated an hour ago

Ground ~20,000 ft ~40,000 ft Winds

LIRN

Details ICAO LIRN (NAP)
Name Naples Capodichino
Region Italy
Timezone Europe/Rome (UTC+1.0)
Stats Elevation 294 ft / 90 m (AMSL)
Location 40.886032° 14.290783°
Runways 1
Magnetic Variation 3.307° E

METAR

LIRN 120820Z 17010KT 150V220 9999 FEW040 16/12 Q0007 NOSIG

Decode

TAF

TAF LIRN 120500Z 1206/1306 17012KT 9999 SCT030 BECMG 1316/1318 VRB07KT

Decode

Departure Runways

ID Width Length Bearing (true) Bearing (mag) Surface Threshold Offset Overrun Length
06 148 ft / 45 m 8,612 ft / 2,625 m 58.03° 54.72° Asphalt 1,309 ft / 399 m 0 ft / 0 m
24 148 ft / 45 m 8,612 ft / 2,625 m 238.05° 234.74° Asphalt 624 ft / 190 m 0 ft / 0 m

EGCN

Details ICAO EGCN (DSA)
Name Doncaster Sheffield
Region United Kingdom
Timezone Europe/London (UTC+0.0)
Stats Elevation 55 ft / 17 m (AMSL)
Location 53.474649° -1.004474°
Runways 1
Magnetic Variation 0.999° W

METAR

EGCN 120820Z 13003KT CAVOK M05/M05 Q1006

Decode

TAF

TAF EGCN 120502Z 1206/1306 27005KT 9999 FEW035 BECMG 1213/1216 21012KT TEMPO 1220/1302 6000 RA BKN006

Decode

Destination Runways

ID Width Length Bearing (true) Bearing (mag) Surface Threshold Offset Overrun Length
02 197 ft / 60 m 8,975 ft / 2,736 m 17.62° 18.62° Asphalt 486 ft / 148 m 13 ft / 4 m
20 197 ft / 60 m 8,975 ft / 2,736 m 197.63° 198.63° Asphalt 0 ft / 0 m 0 ft / 0 m

Approach Navaids

Runway Type Ident Frequency Range Bearing (true) Bearing (mag) Slope Elevation
20 Localiser IFNL 110.95 MHz 18 nm / 33 km 197.61° 198.61° - 55 ft / 17 m (AMSL)
20 Glidescope IFNL 110.95 MHz 10 nm / 19 km 197.63° 198.63° 3.00° 55 ft / 17 m (AMSL)
20 DME IFNL 110.95 MHz 18 nm / 33 km - - - 11 ft / 3 m (AMSL)